createdAt,value
2023-04-08T00:02:04.717Z,4.23
2023-04-08T00:04:32.411Z,4.12
2023-04-08T00:06:59.695Z,4.05
2023-04-08T00:09:27.035Z,3.96
2023-04-08T00:11:54.302Z,3.93
2023-04-08T00:14:21.674Z,3.97
2023-04-08T00:16:48.877Z,4.16
2023-04-08T00:19:16.157Z,4.21
2023-04-08T00:21:43.320Z,4.25
2023-04-08T00:24:11.090Z,4.12
2023-04-08T00:26:38.411Z,4.15
2023-04-08T00:29:06.362Z,4.19
2023-04-08T00:31:33.673Z,4.28
2023-04-08T00:34:00.881Z,4.27
2023-04-08T00:36:28.365Z,4.29
2023-04-08T00:38:55.639Z,4.22
2023-04-08T00:41:22.886Z,4.30
2023-04-08T00:43:50.144Z,4.22
2023-04-08T00:46:17.509Z,4.19
2023-04-08T00:48:44.882Z,4.30
2023-04-08T00:51:12.526Z,4.34
2023-04-08T00:53:39.766Z,4.35
2023-04-08T00:56:06.991Z,4.43
2023-04-08T00:58:34.183Z,4.27
2023-04-08T01:01:11.316Z,4.39
2023-04-08T01:04:26.320Z,4.35
2023-04-08T01:07:17.472Z,4.23
2023-04-08T01:09:53.143Z,4.10
2023-04-08T01:12:29.617Z,4.11
2023-04-08T01:15:06.641Z,4.32
2023-04-08T01:17:36.601Z,4.45
2023-04-08T01:20:06.142Z,4.42
2023-04-08T01:23:04.620Z,4.55
2023-04-08T01:25:35.286Z,4.35
2023-04-08T01:28:16.558Z,4.45
2023-04-08T01:30:45.170Z,4.31
2023-04-08T01:33:16.050Z,4.29
2023-04-08T01:35:44.834Z,4.41
2023-04-08T01:38:18.213Z,4.38
2023-04-08T01:40:47.307Z,4.37
2023-04-08T01:43:18.006Z,4.36
2023-04-08T01:45:46.001Z,4.31
2023-04-08T01:48:15.299Z,4.20
2023-04-08T01:50:44.906Z,4.20
2023-04-08T01:53:14.203Z,4.20
2023-04-08T01:55:43.364Z,4.23
2023-04-08T01:58:20.724Z,4.25
2023-04-08T02:00:48.571Z,4.29
2023-04-08T02:03:21.308Z,4.32
2023-04-08T02:05:48.893Z,4.15
2023-04-08T02:08:16.516Z,4.28
2023-04-08T02:10:43.833Z,4.02
2023-04-08T02:13:11.084Z,3.90
2023-04-08T02:15:47.771Z,4.20
2023-04-08T02:18:28.278Z,4.34
2023-04-08T02:21:13.792Z,4.23
2023-04-08T02:23:44.184Z,4.13
2023-04-08T02:26:15.856Z,4.36
2023-04-08T02:28:43.390Z,4.35
2023-04-08T02:31:13.759Z,4.37
2023-04-08T02:33:46.128Z,4.44
2023-04-08T02:36:16.015Z,4.33
2023-04-08T02:38:48.087Z,4.33
2023-04-08T02:41:17.038Z,4.37
2023-04-08T02:43:44.377Z,4.22
2023-04-08T02:46:12.681Z,4.29
2023-04-08T02:48:40.013Z,4.29
2023-04-08T02:51:07.258Z,4.15
2023-04-08T02:53:34.541Z,4.26
2023-04-08T02:56:01.832Z,4.12
2023-04-08T02:58:29.205Z,4.20
2023-04-08T03:00:56.559Z,4.35
2023-04-08T03:03:28.654Z,4.32
2023-04-08T03:05:59.546Z,4.30
2023-04-08T03:08:27.015Z,4.28
2023-04-08T03:10:54.294Z,4.31
2023-04-08T03:13:21.522Z,4.30
2023-04-08T03:15:48.756Z,4.47
2023-04-08T03:18:16.028Z,4.30
2023-04-08T03:20:43.270Z,4.27
2023-04-08T03:23:11.310Z,4.19
2023-04-08T03:25:38.588Z,4.22
2023-04-08T03:28:05.910Z,4.14
2023-04-08T03:30:33.365Z,4.19
2023-04-08T03:33:00.617Z,4.11
2023-04-08T03:35:28.527Z,4.01
2023-04-08T03:37:55.734Z,3.99
2023-04-08T03:40:22.936Z,4.00
2023-04-08T03:42:50.176Z,4.18
2023-04-08T03:45:17.367Z,4.13
2023-04-08T03:47:44.617Z,3.89
2023-04-08T03:50:12.314Z,3.84
2023-04-08T03:52:39.553Z,3.94
2023-04-08T03:55:07.221Z,3.79
2023-04-08T03:57:34.399Z,3.98
2023-04-08T04:00:01.957Z,3.85
2023-04-08T04:02:39.551Z,4.01
2023-04-08T04:05:07.416Z,4.14
2023-04-08T04:07:34.692Z,4.28
2023-04-08T04:10:02.294Z,4.24
2023-04-08T04:12:29.413Z,4.23
2023-04-08T04:14:56.709Z,4.29
2023-04-08T04:17:23.972Z,4.27
2023-04-08T04:19:51.293Z,4.26
2023-04-08T04:22:18.541Z,4.43
2023-04-08T04:24:49.772Z,4.28
2023-04-08T04:27:18.337Z,4.46
2023-04-08T04:29:45.713Z,4.37
2023-04-08T04:32:13.078Z,4.45
2023-04-08T04:34:40.438Z,4.54
2023-04-08T04:37:07.818Z,4.50
2023-04-08T04:39:35.013Z,4.35
2023-04-08T04:42:03.575Z,4.39
2023-04-08T04:44:31.193Z,4.50
2023-04-08T04:46:58.525Z,4.47
2023-04-08T04:49:26.068Z,4.47
2023-04-08T04:51:53.322Z,4.39
2023-04-08T04:54:20.682Z,4.34
2023-04-08T04:56:47.996Z,4.51
2023-04-08T04:59:15.484Z,4.32
2023-04-08T05:01:42.802Z,4.38
2023-04-08T05:04:10.076Z,4.49
2023-04-08T05:06:37.235Z,4.34
2023-04-08T05:09:04.591Z,4.38
2023-04-08T05:11:32.038Z,4.65
2023-04-08T05:13:59.260Z,4.63
2023-04-08T05:16:27.245Z,4.46
2023-04-08T05:18:54.712Z,4.47
2023-04-08T05:21:22.062Z,4.59
2023-04-08T05:23:51.139Z,4.65
2023-04-08T05:26:20.370Z,4.66
2023-04-08T05:28:53.704Z,4.76
2023-04-08T05:31:21.698Z,4.83
2023-04-08T05:33:49.005Z,4.86
2023-04-08T05:36:16.390Z,4.98
2023-04-08T05:38:44.384Z,5.02
2023-04-08T05:41:12.382Z,5.18
2023-04-08T05:43:39.700Z,5.26
2023-04-08T05:46:11.297Z,4.93
2023-04-08T05:48:38.533Z,5.05
2023-04-08T05:51:05.977Z,5.09
2023-04-08T05:53:33.299Z,5.03
2023-04-08T05:56:00.628Z,5.00
2023-04-08T05:58:27.908Z,5.24
2023-04-08T06:00:55.721Z,5.32
2023-04-08T06:03:23.208Z,5.38
2023-04-08T06:05:50.554Z,5.34
2023-04-08T06:08:17.744Z,5.25
2023-04-08T06:10:52.169Z,5.37
2023-04-08T06:13:21.104Z,5.21
2023-04-08T06:15:51.422Z,5.18
2023-04-08T06:18:18.777Z,5.23
2023-04-08T06:20:46.509Z,5.49
2023-04-08T06:23:14.280Z,5.42
2023-04-08T06:25:42.030Z,5.69
2023-04-08T06:28:09.413Z,5.86
2023-04-08T06:30:36.659Z,6.14
2023-04-08T06:33:04.208Z,6.26
2023-04-08T06:35:32.342Z,6.31
2023-04-08T06:38:00.144Z,6.26
2023-04-08T06:40:27.415Z,6.47
2023-04-08T06:42:54.891Z,6.55
2023-04-08T06:45:33.862Z,6.75
2023-04-08T06:48:01.453Z,6.16
2023-04-08T06:50:28.701Z,6.09
2023-04-08T06:52:55.916Z,5.97
2023-04-08T06:55:23.249Z,5.70
2023-04-08T06:57:50.549Z,5.96
2023-04-08T07:00:18.229Z,5.90
2023-04-08T07:02:45.736Z,6.40
2023-04-08T07:05:13.178Z,6.79
2023-04-08T07:07:40.472Z,6.48
2023-04-08T07:10:10.794Z,6.29
2023-04-08T07:12:38.309Z,6.63
2023-04-08T07:15:06.397Z,7.01
2023-04-08T07:17:34.282Z,7.44
2023-04-08T07:20:01.831Z,7.66
2023-04-08T07:22:29.051Z,7.98
2023-04-08T07:24:56.372Z,8.16
2023-04-08T07:27:23.545Z,8.45
2023-04-08T07:29:56.982Z,8.42
2023-04-08T07:32:24.503Z,8.07
2023-04-08T07:34:51.929Z,8.08
2023-04-08T07:37:19.266Z,8.10
2023-04-08T07:39:46.515Z,8.25
2023-04-08T07:42:13.728Z,7.90
2023-04-08T07:44:40.943Z,7.85
2023-04-08T07:47:09.731Z,8.05
2023-04-08T07:49:36.998Z,8.15
2023-04-08T07:52:04.801Z,8.11
2023-04-08T07:54:34.404Z,8.07
2023-04-08T07:57:02.321Z,7.98
2023-04-08T07:59:29.988Z,8.01
2023-04-08T08:01:57.395Z,8.06
2023-04-08T08:04:26.465Z,8.17
2023-04-08T08:06:53.935Z,8.15
2023-04-08T08:09:21.180Z,7.77
2023-04-08T08:11:48.569Z,7.32
2023-04-08T08:14:15.853Z,7.61
2023-04-08T08:16:44.740Z,7.53
2023-04-08T08:19:13.958Z,7.68
2023-04-08T08:21:41.850Z,7.70
2023-04-08T08:24:09.116Z,7.75
2023-04-08T08:26:39.444Z,7.64
2023-04-08T08:29:09.106Z,7.55
2023-04-08T08:31:36.569Z,7.89
2023-04-08T08:34:03.813Z,7.58
2023-04-08T08:36:32.733Z,7.29
2023-04-08T08:39:01.418Z,7.82
2023-04-08T08:41:35.414Z,8.37
2023-04-08T08:44:06.606Z,8.20
2023-04-08T08:46:34.397Z,8.40
2023-04-08T08:49:02.393Z,8.70
2023-04-08T08:51:32.852Z,8.50
2023-04-08T08:54:04.390Z,8.09
2023-04-08T08:56:34.542Z,7.91
2023-04-08T08:59:01.848Z,8.22
2023-04-08T09:01:33.295Z,7.89
2023-04-08T09:04:16.634Z,7.88
2023-04-08T09:06:50.207Z,7.63
2023-04-08T09:09:20.716Z,8.05
2023-04-08T09:11:48.111Z,8.44
2023-04-08T09:14:24.211Z,8.76
2023-04-08T09:16:53.362Z,8.77
2023-04-08T09:19:21.172Z,9.18
2023-04-08T09:22:09.830Z,9.70
2023-04-08T09:24:38.124Z,10.43
2023-04-08T09:27:05.944Z,10.88
2023-04-08T09:29:37.362Z,12.25
2023-04-08T09:32:06.812Z,15.47
2023-04-08T09:34:34.610Z,17.79
2023-04-08T09:37:02.329Z,18.97
2023-04-08T09:39:30.827Z,18.32
2023-04-08T09:42:01.484Z,16.97
2023-04-08T09:44:30.665Z,17.05
2023-04-08T09:47:12.865Z,16.98
2023-04-08T09:50:03.209Z,16.20
2023-04-08T09:53:08.227Z,18.42
2023-04-08T09:55:37.552Z,20.58
2023-04-08T09:58:16.324Z,20.00
2023-04-08T10:00:51.038Z,17.99
2023-04-08T10:03:49.966Z,16.61
2023-04-08T10:06:18.109Z,15.72
2023-04-08T10:08:45.924Z,15.58
2023-04-08T10:11:16.688Z,14.80
2023-04-08T10:13:44.584Z,18.27
2023-04-08T10:16:27.279Z,18.25
2023-04-08T10:18:58.298Z,19.04
2023-04-08T10:21:52.074Z,16.56
2023-04-08T10:24:24.254Z,14.70
2023-04-08T10:26:51.578Z,13.41
2023-04-08T10:29:18.676Z,12.83
2023-04-08T10:31:52.919Z,11.87
2023-04-08T10:34:22.857Z,10.62
2023-04-08T10:36:50.761Z,10.47
2023-04-08T10:39:18.391Z,10.64
2023-04-08T10:41:51.555Z,10.47
2023-04-08T10:44:26.755Z,10.39
2023-04-08T10:46:55.139Z,10.33
2023-04-08T10:49:22.678Z,10.44
2023-04-08T10:51:50.067Z,10.84
2023-04-08T10:54:18.683Z,11.64
2023-04-08T10:56:52.494Z,11.65
2023-04-08T10:59:33.090Z,12.10
2023-04-08T11:02:01.613Z,12.33
2023-04-08T11:04:29.289Z,12.62
2023-04-08T11:06:56.815Z,12.40
2023-04-08T11:09:24.043Z,11.35
2023-04-08T11:11:52.440Z,10.97
2023-04-08T11:14:21.981Z,10.81
2023-04-08T11:16:49.586Z,10.48
2023-04-08T11:19:17.053Z,10.63
2023-04-08T11:21:44.598Z,10.80
2023-04-08T11:24:13.484Z,11.26
2023-04-08T11:26:42.145Z,12.62
2023-04-08T11:29:14.469Z,13.26
2023-04-08T11:31:43.960Z,12.98
2023-04-08T11:34:11.496Z,13.24
2023-04-08T11:36:41.867Z,13.71
2023-04-08T11:39:12.427Z,13.92
2023-04-08T11:41:40.760Z,13.80
2023-04-08T11:44:08.957Z,13.32
2023-04-08T11:46:36.667Z,13.57
2023-04-08T11:49:07.032Z,13.29
2023-04-08T11:51:58.053Z,12.41
2023-04-08T11:54:33.598Z,11.68
2023-04-08T11:57:03.108Z,11.10
2023-04-08T11:59:30.501Z,11.13
2023-04-08T12:01:58.186Z,10.70
2023-04-08T12:04:25.970Z,10.90
2023-04-08T12:06:53.474Z,10.87
2023-04-08T12:09:20.830Z,11.01
2023-04-08T12:11:48.370Z,11.07
2023-04-08T12:14:15.766Z,10.75
2023-04-08T12:16:43.078Z,10.69
2023-04-08T12:19:10.435Z,11.23
2023-04-08T12:21:38.282Z,10.81
2023-04-08T12:24:05.845Z,10.73
2023-04-08T12:26:33.231Z,11.08
2023-04-08T12:29:00.853Z,11.17
2023-04-08T12:31:28.562Z,11.65
2023-04-08T12:33:55.936Z,11.76
2023-04-08T12:36:23.215Z,11.74
2023-04-08T12:38:50.809Z,11.57
2023-04-08T12:41:18.113Z,10.92
2023-04-08T12:43:45.611Z,10.97
2023-04-08T12:46:13.420Z,10.68
2023-04-08T12:48:40.952Z,10.17
2023-04-08T12:51:10.460Z,10.00
2023-04-08T12:53:37.805Z,9.92
2023-04-08T12:56:05.564Z,10.32
2023-04-08T12:58:32.926Z,10.66
2023-04-08T13:01:00.414Z,10.62
2023-04-08T13:03:30.621Z,10.43
2023-04-08T13:05:59.273Z,10.44
2023-04-08T13:08:26.553Z,10.60
2023-04-08T13:10:54.856Z,10.88
2023-04-08T13:13:22.072Z,11.06
2023-04-08T13:15:49.590Z,10.55
2023-04-08T13:18:17.114Z,10.83
2023-04-08T13:20:44.348Z,10.89
2023-04-08T13:23:12.013Z,11.14
2023-04-08T13:25:39.261Z,11.20
2023-04-08T13:28:06.692Z,10.61
2023-04-08T13:30:34.121Z,10.72
2023-04-08T13:33:01.384Z,10.11
2023-04-08T13:35:28.657Z,10.20
2023-04-08T13:37:56.190Z,10.29
2023-04-08T13:40:24.116Z,10.26
2023-04-08T13:42:51.812Z,10.99
2023-04-08T13:45:20.291Z,11.30
2023-04-08T13:47:47.591Z,10.70
2023-04-08T13:50:14.954Z,10.76
2023-04-08T13:52:42.136Z,10.49
2023-04-08T13:55:09.571Z,10.20
2023-04-08T13:57:36.814Z,10.03
2023-04-08T14:00:05.123Z,9.79
2023-04-08T14:02:37.538Z,9.47
2023-04-08T14:05:05.318Z,9.60
2023-04-08T14:07:32.597Z,9.71
2023-04-08T14:09:59.956Z,9.55
2023-04-08T14:12:27.333Z,9.58
2023-04-08T14:14:54.569Z,9.49
2023-04-08T14:17:21.832Z,9.47
2023-04-08T14:19:52.171Z,9.42
2023-04-08T14:22:19.535Z,9.39
2023-04-08T14:24:46.704Z,9.24
2023-04-08T14:27:14.061Z,9.11
2023-04-08T14:29:41.562Z,9.06
2023-04-08T14:32:08.845Z,9.30
2023-04-08T14:34:37.506Z,9.16
2023-04-08T14:37:05.313Z,8.94
2023-04-08T14:39:32.563Z,8.90
2023-04-08T14:41:59.864Z,8.95
2023-04-08T14:44:27.064Z,8.92
2023-04-08T14:46:54.423Z,8.72
2023-04-08T14:49:21.772Z,8.46
2023-04-08T14:51:49.948Z,8.53
2023-04-08T14:54:19.049Z,8.63
2023-04-08T14:56:46.245Z,8.48
2023-04-08T14:59:13.554Z,8.52
2023-04-08T15:01:41.524Z,8.29
2023-04-08T15:04:09.045Z,8.21
2023-04-08T15:06:36.822Z,8.22
2023-04-08T15:09:04.116Z,8.26
2023-04-08T15:11:31.376Z,8.38
2023-04-08T15:13:58.707Z,8.45
2023-04-08T15:16:26.552Z,8.63
2023-04-08T15:18:53.918Z,8.65
2023-04-08T15:21:22.908Z,8.63
2023-04-08T15:23:50.333Z,8.51
2023-04-08T15:26:17.534Z,8.57
2023-04-08T15:28:44.839Z,8.55
2023-04-08T15:31:12.546Z,8.62
2023-04-08T15:33:41.499Z,8.38
2023-04-08T15:36:09.157Z,8.57
2023-04-08T15:38:41.454Z,8.60
2023-04-08T15:41:24.753Z,8.34
2023-04-08T15:43:53.319Z,8.23
2023-04-08T15:46:21.530Z,8.32
2023-04-08T15:48:49.667Z,8.37
2023-04-08T15:51:17.317Z,8.12
2023-04-08T15:53:44.606Z,7.92
2023-04-08T15:56:16.685Z,7.85
2023-04-08T15:58:45.796Z,7.84
2023-04-08T16:01:13.520Z,8.01
2023-04-08T16:03:41.139Z,7.71
2023-04-08T16:06:08.841Z,7.69
2023-04-08T16:08:37.248Z,7.74
2023-04-08T16:11:06.649Z,7.70
2023-04-08T16:13:34.611Z,7.57
2023-04-08T16:16:02.602Z,7.49
2023-04-08T16:18:30.702Z,7.54
2023-04-08T16:20:58.116Z,7.58
2023-04-08T16:23:25.725Z,7.19
2023-04-08T16:25:53.175Z,7.49
2023-04-08T16:28:20.511Z,7.47
2023-04-08T16:30:48.064Z,7.03
2023-04-08T16:33:16.143Z,7.41
2023-04-08T16:35:43.447Z,7.67
2023-04-08T16:38:11.024Z,7.84
2023-04-08T16:40:39.298Z,7.28
2023-04-08T16:43:06.764Z,7.32
2023-04-08T16:45:34.052Z,7.34
2023-04-08T16:48:01.506Z,7.23
2023-04-08T16:50:29.136Z,7.27
2023-04-08T16:52:56.719Z,7.16
2023-04-08T16:55:23.973Z,7.20
2023-04-08T16:57:51.334Z,7.05
2023-04-08T17:00:20.583Z,7.20
2023-04-08T17:02:48.529Z,7.09
2023-04-08T17:05:16.571Z,6.92
2023-04-08T17:07:44.142Z,7.20
2023-04-08T17:10:11.374Z,7.10
2023-04-08T17:12:38.685Z,6.93
2023-04-08T17:15:06.833Z,6.91
2023-04-08T17:17:34.172Z,6.67
2023-04-08T17:20:01.466Z,6.74
2023-04-08T17:22:28.844Z,6.74
2023-04-08T17:24:56.204Z,6.73
2023-04-08T17:27:23.618Z,6.44
2023-04-08T17:29:56.420Z,6.55
2023-04-08T17:32:27.269Z,6.24
2023-04-08T17:34:54.882Z,6.12
2023-04-08T17:37:22.199Z,6.14
2023-04-08T17:39:49.475Z,6.16
2023-04-08T17:42:17.101Z,6.05
2023-04-08T17:44:44.886Z,6.34
2023-04-08T17:47:12.103Z,6.32
2023-04-08T17:49:39.409Z,6.42
2023-04-08T17:52:06.626Z,6.41
2023-04-08T17:54:34.703Z,6.27
2023-04-08T17:57:03.172Z,6.52
2023-04-08T17:59:30.926Z,6.59
2023-04-08T18:01:58.337Z,6.66
2023-04-08T18:04:25.791Z,6.58
2023-04-08T18:06:53.106Z,6.64
2023-04-08T18:09:20.322Z,6.83
2023-04-08T18:11:50.314Z,6.78
2023-04-08T18:14:17.547Z,6.87
2023-04-08T18:16:44.932Z,6.86
2023-04-08T18:19:13.536Z,6.76
2023-04-08T18:21:40.776Z,6.74
2023-04-08T18:24:09.402Z,6.77
2023-04-08T18:26:36.803Z,6.82
2023-04-08T18:29:04.156Z,6.87
2023-04-08T18:31:31.402Z,6.83
2023-04-08T18:33:58.651Z,6.82
2023-04-08T18:36:26.635Z,6.80
2023-04-08T18:38:53.862Z,6.76
2023-04-08T18:41:23.344Z,6.71
2023-04-08T18:43:51.474Z,6.62
2023-04-08T18:46:19.966Z,6.54
2023-04-08T18:48:49.235Z,6.58
2023-04-08T18:51:16.848Z,6.68
2023-04-08T18:53:44.729Z,6.56
2023-04-08T18:56:19.712Z,6.41
2023-04-08T18:58:47.649Z,6.45
2023-04-08T19:01:14.922Z,6.44
2023-04-08T19:03:45.914Z,6.65
2023-04-08T19:06:13.687Z,6.71
2023-04-08T19:08:41.510Z,6.69
2023-04-08T19:11:08.752Z,6.87
2023-04-08T19:13:36.305Z,6.73
2023-04-08T19:16:03.639Z,6.81
2023-04-08T19:18:31.395Z,6.76
2023-04-08T19:20:58.707Z,6.72
2023-04-08T19:23:26.173Z,6.80
2023-04-08T19:25:53.536Z,6.81
2023-04-08T19:28:21.159Z,6.77
2023-04-08T19:30:50.057Z,6.79
2023-04-08T19:33:18.367Z,6.76
2023-04-08T19:35:47.857Z,6.74
2023-04-08T19:38:15.169Z,6.82
2023-04-08T19:40:42.427Z,6.73
2023-04-08T19:43:09.667Z,6.76
2023-04-08T19:45:36.955Z,6.67
2023-04-08T19:48:04.298Z,6.68
2023-04-08T19:50:32.008Z,6.60
2023-04-08T19:52:59.440Z,6.30
2023-04-08T19:55:26.804Z,6.34
2023-04-08T19:57:54.382Z,6.48
2023-04-08T20:00:22.132Z,6.36
2023-04-08T20:02:49.654Z,6.46
2023-04-08T20:05:17.694Z,6.53
2023-04-08T20:07:44.902Z,6.50
2023-04-08T20:10:15.252Z,6.34
2023-04-08T20:12:42.668Z,6.42
2023-04-08T20:15:22.710Z,6.56
2023-04-08T20:17:52.970Z,6.43
2023-04-08T20:20:20.669Z,6.54
2023-04-08T20:22:47.896Z,6.64
2023-04-08T20:25:15.162Z,6.55
2023-04-08T20:27:42.655Z,6.56
2023-04-08T20:30:10.698Z,6.48
2023-04-08T20:32:38.012Z,6.58
2023-04-08T20:35:05.862Z,6.66
2023-04-08T20:37:33.583Z,6.54
2023-04-08T20:40:01.039Z,6.53
2023-04-08T20:42:28.896Z,6.55
2023-04-08T20:44:56.099Z,6.58
2023-04-08T20:47:23.351Z,6.51
2023-04-08T20:49:50.581Z,6.45
2023-04-08T20:52:17.924Z,6.42
2023-04-08T20:54:45.514Z,6.41
2023-04-08T20:57:12.855Z,6.34
2023-04-08T20:59:40.097Z,6.54
2023-04-08T21:02:08.320Z,6.63
2023-04-08T21:04:36.005Z,6.64
2023-04-08T21:07:03.297Z,6.55
2023-04-08T21:09:30.470Z,6.60
2023-04-08T21:11:57.677Z,6.64
2023-04-08T21:14:25.001Z,6.51
2023-04-08T21:16:52.113Z,6.51
2023-04-08T21:19:19.307Z,6.54
2023-04-08T21:21:46.799Z,6.66
2023-04-08T21:24:14.064Z,6.70
2023-04-08T21:26:41.278Z,6.65
2023-04-08T21:29:08.546Z,6.62
2023-04-08T21:31:35.985Z,6.36
2023-04-08T21:34:06.096Z,6.52
2023-04-08T21:36:33.509Z,6.44
2023-04-08T21:39:00.708Z,6.56
2023-04-08T21:41:29.807Z,6.48
2023-04-08T21:43:57.865Z,6.56
2023-04-08T21:46:25.102Z,6.55
2023-04-08T21:48:53.132Z,6.62
2023-04-08T21:51:20.589Z,6.62
2023-04-08T21:53:47.839Z,6.63
2023-04-08T21:56:15.071Z,6.66
2023-04-08T21:58:42.214Z,6.57
2023-04-08T22:01:09.432Z,6.52
2023-04-08T22:03:36.749Z,6.45
2023-04-08T22:06:04.264Z,6.40
2023-04-08T22:08:32.541Z,6.30
2023-04-08T22:10:59.965Z,6.34
2023-04-08T22:13:27.300Z,6.23
2023-04-08T22:15:54.497Z,6.25
2023-04-08T22:18:21.695Z,6.25
2023-04-08T22:20:49.001Z,6.23
2023-04-08T22:23:16.263Z,6.25
2023-04-08T22:25:43.504Z,6.27
2023-04-08T22:28:10.782Z,6.19
2023-04-08T22:30:37.928Z,6.23
2023-04-08T22:33:05.340Z,6.25
2023-04-08T22:35:32.624Z,6.35
2023-04-08T22:37:59.834Z,6.35
2023-04-08T22:40:27.532Z,6.36
2023-04-08T22:42:56.133Z,6.45
2023-04-08T22:45:23.421Z,6.43
2023-04-08T22:47:50.615Z,6.32
2023-04-08T22:50:17.916Z,6.32
2023-04-08T22:52:45.317Z,6.34
2023-04-08T22:55:12.607Z,6.30
2023-04-08T22:57:39.881Z,6.28
2023-04-08T23:00:08.318Z,6.28
2023-04-08T23:02:35.710Z,6.26
2023-04-08T23:05:03.048Z,6.28
2023-04-08T23:07:30.484Z,6.48
2023-04-08T23:09:57.718Z,6.34
2023-04-08T23:12:24.839Z,6.35
2023-04-08T23:14:52.033Z,6.29
2023-04-08T23:17:19.173Z,6.27
2023-04-08T23:19:46.444Z,6.12
2023-04-08T23:22:14.349Z,6.09
2023-04-08T23:24:41.660Z,6.13
2023-04-08T23:27:08.960Z,6.24
2023-04-08T23:29:36.297Z,6.24
2023-04-08T23:32:03.579Z,6.26
2023-04-08T23:34:30.822Z,6.34
2023-04-08T23:36:57.989Z,6.36
2023-04-08T23:39:25.367Z,6.29
2023-04-08T23:41:52.485Z,6.20
2023-04-08T23:44:19.697Z,6.14
2023-04-08T23:46:46.992Z,6.19
2023-04-08T23:49:14.261Z,6.13
2023-04-08T23:51:41.506Z,6.24
2023-04-08T23:54:08.877Z,6.25
2023-04-08T23:56:36.055Z,6.20
2023-04-08T23:59:03.345Z,6.34
